Time;durP1;ratioP1;P1;durP2;ratioP2;P2;SDS_P1;SDS_P2;PMS_P1;PMS_P2;Temp;Humidity;BMP_temperature;BMP_pressure;BME280_temperature;BME280_humidity;BME280_pressure;Samples;Min_cycle;Max_cycle;Signal;HPM_P1;HPM_P2
2022/04/04 00:01:21;;;;;;;;;;;;;;;1.04;46.60;99037.64;107659;1273;17321;-72
2022/04/04 00:03:48;;;;;;;;;;;;;;;1.00;46.86;99035.52;107629;1274;16451;-72
2022/04/04 00:06:15;;;;;;;;;;;;;;;0.95;46.68;99036.38;107659;1274;17334;-72
2022/04/04 00:08:42;;;;;;;;;;;;;;;0.90;46.92;99034.26;107609;1273;16528;-72
2022/04/04 00:11:10;;;;;;;;;;;;;;;0.86;46.98;99033.54;107501;1274;16464;-73
2022/04/04 00:13:36;;;;;;;;;;;;;;;0.81;46.92;99027.70;107252;1276;16475;-72
2022/04/04 00:16:03;;;;;;;;;;;;;;;0.79;46.86;99028.83;107312;1275;18170;-72
2022/04/04 00:18:31;;;;;;;;;;;;;;;0.79;46.71;99025.35;107328;1274;16535;-73
2022/04/04 00:21:00;;;;;;;;;;;;;;;0.77;46.91;99023.83;107781;1274;17902;-72
2022/04/04 00:23:26;;;;;;;;;;;;;;;0.75;47.13;99017.04;107558;1274;16882;-72
2022/04/04 00:25:53;;;;;;;;;;;;;;;0.72;46.81;99012.05;107356;1274;148639;-72
2022/04/04 00:28:20;;;;;;;;;;;;;;;0.70;47.10;99010.38;107562;1274;17293;-72
2022/04/04 00:30:47;;;;;;;;;;;;;;;0.68;47.06;99008.67;107266;1274;15461;-72
2022/04/04 00:33:13;;;;;;;;;;;;;;;0.67;46.93;99006.64;107279;1274;16440;-72
2022/04/04 00:35:40;;;;;;;;;;;;;;;0.64;47.07;99007.27;107262;1275;16466;-72
2022/04/04 00:38:08;;;;;;;;;;;;;;;0.60;47.32;99006.34;107253;1274;16474;-72
2022/04/04 00:40:35;;;;;;;;;;;;;;;0.57;47.21;99003.10;107359;1274;17856;-72
2022/04/04 00:43:01;;;;;;;;;;;;;;;0.55;47.24;99002.82;107283;1275;16446;-72
2022/04/04 00:45:28;;;;;;;;;;;;;;;0.53;47.43;99002.19;107262;1274;16456;-72
2022/04/04 00:47:54;;;;;;;;;;;;;;;0.52;47.31;99003.27;107231;1275;16441;-72
2022/04/04 00:50:22;;;;;;;;;;;;;;;0.52;47.40;99002.39;107286;1274;16444;-73
2022/04/04 00:52:50;;;;;;;;;;;;;;;0.52;47.35;99004.65;107308;1275;16461;-72
2022/04/04 00:55:17;;;;;;;;;;;;;;;0.53;47.57;98997.46;107326;1274;16442;-72
2022/04/04 00:57:44;;;;;;;;;;;;;;;0.53;47.39;98994.46;107332;1274;16465;-72
2022/04/04 01:00:11;;;;;;;;;;;;;;;0.53;47.38;98992.70;107345;1274;17443;-72
2022/04/04 01:02:39;;;;;;;;;;;;;;;0.56;47.68;98994.02;107312;1275;16368;-72
2022/04/04 01:05:09;;;;;;;;;;;;;;;0.58;47.74;98992.92;107384;1274;16452;-72
2022/04/04 01:07:36;;;;;;;;;;;;;;;0.62;47.89;98987.89;107472;1274;16470;-73
2022/04/04 01:10:03;;;;;;;;;;;;;;;0.66;47.74;98985.83;107191;1274;16452;-73
2022/04/04 01:12:30;;;;;;;;;;;;;;;0.70;47.74;98987.63;107364;1274;16458;-72
2022/04/04 01:14:57;;;;;;;;;;;;;;;0.73;47.70;98986.27;107370;1274;16449;-72
2022/04/04 01:17:25;;;;;;;;;;;;;;;0.76;47.78;98982.31;107197;1274;16730;-72
2022/04/04 01:19:52;;;;;;;;;;;;;;;0.79;47.81;98982.23;107350;1276;16444;-72
2022/04/04 01:22:18;;;;;;;;;;;;;;;0.80;48.06;98979.55;107394;1274;16448;-73
2022/04/04 01:24:45;;;;;;;;;;;;;;;0.82;48.07;98977.55;107224;1275;16456;-73
2022/04/04 01:27:12;;;;;;;;;;;;;;;0.85;48.05;98973.64;107345;1274;17846;-73
2022/04/04 01:29:39;;;;;;;;;;;;;;;0.85;48.13;98970.81;107280;1274;17305;-73
2022/04/04 01:32:07;;;;;;;;;;;;;;;0.86;48.16;98972.35;107352;1274;16445;-73
2022/04/04 01:34:34;;;;;;;;;;;;;;;0.88;48.20;98972.98;107356;1274;16459;-73
2022/04/04 01:37:01;;;;;;;;;;;;;;;0.91;48.36;98970.10;107260;1274;18053;-73
2022/04/04 01:39:27;;;;;;;;;;;;;;;0.93;48.06;98972.27;107253;1274;16488;-73
2022/04/04 01:41:54;;;;;;;;;;;;;;;0.96;48.21;98969.72;107285;1276;16517;-73
2022/04/04 01:44:21;;;;;;;;;;;;;;;0.98;48.21;98967.18;107328;1274;17188;-73
2022/04/04 01:46:47;;;;;;;;;;;;;;;1.00;48.27;98962.05;107215;1276;16465;-73
2022/04/04 01:49:14;;;;;;;;;;;;;;;1.02;48.35;98961.30;107371;1274;16443;-73
2022/04/04 01:51:41;;;;;;;;;;;;;;;1.04;48.42;98962.27;107372;1274;16062;-72
2022/04/04 01:54:09;;;;;;;;;;;;;;;1.08;48.66;98963.33;107471;1274;17857;-72
2022/04/04 01:56:35;;;;;;;;;;;;;;;1.12;48.59;98960.76;107251;1276;16474;-72
2022/04/04 01:59:03;;;;;;;;;;;;;;;1.17;48.72;98956.92;107368;1274;16527;-73
2022/04/04 02:01:34;;;;;;;;;;;;;;;1.19;48.73;98957.32;107275;1275;16429;-73
2022/04/04 02:04:02;;;;;;;;;;;;;;;1.21;48.70;98956.74;107422;1274;16464;-74
2022/04/04 02:06:28;;;;;;;;;;;;;;;1.22;48.60;98955.30;107410;1274;16458;-72
2022/04/04 02:08:55;;;;;;;;;;;;;;;1.24;48.70;98949.64;107334;1274;16431;-72
2022/04/04 02:11:22;;;;;;;;;;;;;;;1.25;48.56;98950.79;107444;1274;18553;-72
2022/04/04 02:13:48;;;;;;;;;;;;;;;1.27;48.90;98950.39;107366;1274;16442;-72
2022/04/04 02:16:15;;;;;;;;;;;;;;;1.28;48.74;98948.05;107543;1274;17276;-72
2022/04/04 02:18:41;;;;;;;;;;;;;;;1.30;48.92;98947.45;107278;1274;16440;-72
2022/04/04 02:21:10;;;;;;;;;;;;;;;1.33;49.02;98941.40;107301;1274;16460;-72
2022/04/04 02:23:37;;;;;;;;;;;;;;;1.33;49.12;98939.09;107546;1273;16513;-72
2022/04/04 02:26:04;;;;;;;;;;;;;;;1.34;49.01;98937.13;107592;1272;17469;-72
2022/04/04 02:28:31;;;;;;;;;;;;;;;1.36;49.02;98936.90;107510;1274;16456;-72
2022/04/04 02:30:59;;;;;;;;;;;;;;;1.39;48.90;98935.73;107360;1273;16426;-73
2022/04/04 02:33:25;;;;;;;;;;;;;;;1.41;49.25;98930.23;107593;1273;17761;-73
2022/04/04 02:35:52;;;;;;;;;;;;;;;1.44;49.08;98931.16;107589;1274;17440;-73
2022/04/04 02:38:20;;;;;;;;;;;;;;;1.47;48.97;98934.42;107408;1274;17989;-73
2022/04/04 02:40:47;;;;;;;;;;;;;;;1.49;49.19;98932.41;107423;1274;17825;-72
2022/04/04 02:43:13;;;;;;;;;;;;;;;1.52;49.48;98929.84;107411;1274;16444;-72
2022/04/04 02:45:40;;;;;;;;;;;;;;;1.54;49.36;98931.33;107558;1273;16498;-72
2022/04/04 02:48:07;;;;;;;;;;;;;;;1.55;49.27;98926.37;107215;1274;16433;-73
2022/04/04 02:50:34;;;;;;;;;;;;;;;1.56;49.44;98924.23;107576;1273;16441;-72
2022/04/04 02:53:01;;;;;;;;;;;;;;;1.55;49.37;98922.35;107605;1274;17777;-73
2022/04/04 02:58:14;;;;;;;;;;;;;;;1.54;49.37;98923.46;107545;1274;17444;-73
2022/04/04 03:00:41;;;;;;;;;;;;;;;1.55;49.43;98923.77;107484;1274;16925;-74
2022/04/04 03:03:07;;;;;;;;;;;;;;;1.52;49.60;98919.30;107287;1275;16503;-73
2022/04/04 03:05:34;;;;;;;;;;;;;;;1.50;49.37;98918.30;107587;1274;16446;-73
2022/04/04 03:08:01;;;;;;;;;;;;;;;1.50;49.60;98918.31;107550;1273;16505;-73
2022/04/04 03:10:28;;;;;;;;;;;;;;;1.49;49.57;98915.90;107527;1274;16442;-73
2022/04/04 03:12:55;;;;;;;;;;;;;;;1.48;49.59;98916.13;107322;1273;16465;-72
2022/04/04 03:15:22;;;;;;;;;;;;;;;1.48;49.68;98913.85;107212;1275;16512;-72
2022/04/04 03:17:51;;;;;;;;;;;;;;;1.47;49.71;98916.88;107327;1274;17447;-74
2022/04/04 03:20:19;;;;;;;;;;;;;;;1.44;49.69;98911.33;107260;1274;16457;-73
2022/04/04 03:22:46;;;;;;;;;;;;;;;1.42;49.63;98911.61;107568;1274;16505;-73
2022/04/04 03:25:15;;;;;;;;;;;;;;;1.38;49.78;98915.42;107242;1274;16472;-73
2022/04/04 03:27:42;;;;;;;;;;;;;;;1.34;49.71;98914.88;107377;1273;16468;-72
2022/04/04 03:30:10;;;;;;;;;;;;;;;1.30;49.87;98916.09;107335;1274;16438;-75
2022/04/04 03:32:37;;;;;;;;;;;;;;;1.25;49.77;98919.95;107304;1274;15655;-72
2022/04/04 03:35:04;;;;;;;;;;;;;;;1.20;49.82;98916.98;107266;1274;16451;-73
2022/04/04 03:37:34;;;;;;;;;;;;;;;1.16;50.06;98914.48;107489;1273;16444;-72
2022/04/04 03:40:02;;;;;;;;;;;;;;;1.11;50.08;98916.24;107624;1273;15473;-72
2022/04/04 03:42:29;;;;;;;;;;;;;;;1.07;50.02;98914.98;107260;1274;16504;-73
2022/04/04 03:44:56;;;;;;;;;;;;;;;1.05;50.42;98917.18;107477;1273;18057;-73
2022/04/04 03:47:23;;;;;;;;;;;;;;;1.00;50.29;98916.27;107357;1274;17851;-73
2022/04/04 03:49:50;;;;;;;;;;;;;;;0.97;50.20;98914.66;107580;1273;16980;-73
2022/04/04 03:52:17;;;;;;;;;;;;;;;0.96;50.01;98918.02;107267;1274;16469;-72
2022/04/04 03:54:43;;;;;;;;;;;;;;;0.95;50.44;98915.76;107414;1274;16437;-73
2022/04/04 03:57:10;;;;;;;;;;;;;;;0.93;50.24;98916.35;107356;1273;16434;-72
2022/04/04 03:59:37;;;;;;;;;;;;;;;0.90;50.20;98912.98;107335;1274;15454;-74
2022/04/04 04:02:03;;;;;;;;;;;;;;;0.86;50.16;98908.73;107264;1274;16449;-74
2022/04/04 04:04:31;;;;;;;;;;;;;;;0.81;50.15;98911.88;107590;1274;18243;-74
2022/04/04 04:07:10;;;;;;;;;;;;;;;0.75;49.89;98909.79;107428;1274;16456;-74
2022/04/04 04:09:43;;;;;;;;;;;;;;;0.70;50.16;98909.80;107343;1274;17287;-74
2022/04/04 04:12:11;;;;;;;;;;;;;;;0.66;49.93;98909.97;107321;1274;16528;-74
2022/04/04 04:14:41;;;;;;;;;;;;;;;0.59;50.03;98911.24;107361;1274;17293;-75
2022/04/04 04:17:08;;;;;;;;;;;;;;;0.53;49.89;98911.98;107284;1274;16541;-73
2022/04/04 04:22:22;;;;;;;;;;;;;;;0.37;49.86;98911.28;107309;1274;16481;-74
2022/04/04 04:24:48;;;;;;;;;;;;;;;0.33;49.99;98913.01;107387;1274;16456;-73
2022/04/04 04:27:17;;;;;;;;;;;;;;;0.29;50.29;98907.52;107455;1275;16512;-73
2022/04/04 04:29:44;;;;;;;;;;;;;;;0.25;50.46;98909.39;107350;1274;17794;-73
2022/04/04 04:32:13;;;;;;;;;;;;;;;0.22;50.34;98909.51;107232;1276;17421;-73
2022/04/04 04:34:40;;;;;;;;;;;;;;;0.18;50.33;98908.39;107415;1274;15943;-73
2022/04/04 04:37:07;;;;;;;;;;;;;;;0.15;50.43;98906.39;107334;1274;16513;-73
2022/04/04 04:39:33;;;;;;;;;;;;;;;0.14;50.18;98906.64;107218;1275;15371;-73
2022/04/04 04:42:00;;;;;;;;;;;;;;;0.13;49.97;98907.88;107305;1274;17338;-74
2022/04/04 04:44:27;;;;;;;;;;;;;;;0.11;50.48;98905.64;107275;1274;15445;-74
2022/04/04 04:46:54;;;;;;;;;;;;;;;0.10;50.34;98902.19;107215;1276;15498;-76
2022/04/04 04:49:20;;;;;;;;;;;;;;;0.09;50.31;98901.36;107263;1274;16608;-74
2022/04/04 04:51:47;;;;;;;;;;;;;;;0.08;50.24;98900.85;107252;1275;16437;-72
2022/04/04 04:54:14;;;;;;;;;;;;;;;0.09;50.42;98900.31;107230;1274;16447;-74
2022/04/04 04:56:40;;;;;;;;;;;;;;;0.10;50.19;98903.42;107406;1274;16469;-75
2022/04/04 04:59:07;;;;;;;;;;;;;;;0.13;50.19;98902.80;107468;1274;16438;-73
2022/04/04 05:01:34;;;;;;;;;;;;;;;0.15;50.48;98900.60;107402;1273;17431;-73
2022/04/04 05:04:00;;;;;;;;;;;;;;;0.19;50.33;98898.39;107224;1275;17782;-73
2022/04/04 05:06:27;;;;;;;;;;;;;;;0.21;50.50;98899.54;107326;1275;15411;-73
2022/04/04 05:09:00;;;;;;;;;;;;;;;0.23;50.35;98899.47;107200;1276;16450;-73
2022/04/04 05:11:27;;;;;;;;;;;;;;;0.26;50.33;98896.95;107409;1274;16669;-74
2022/04/04 05:13:53;;;;;;;;;;;;;;;0.29;50.12;98899.11;107310;1274;16440;-73
2022/04/04 05:16:20;;;;;;;;;;;;;;;0.32;50.20;98898.67;107570;1274;16510;-73
2022/04/04 05:18:47;;;;;;;;;;;;;;;0.35;50.30;98898.41;107586;1273;15623;-73
2022/04/04 05:21:13;;;;;;;;;;;;;;;0.37;50.35;98894.48;107568;1274;16451;-74
2022/04/04 05:23:41;;;;;;;;;;;;;;;0.42;50.45;98893.44;107300;1274;16449;-74
2022/04/04 05:26:08;;;;;;;;;;;;;;;0.47;50.50;98892.91;107611;1272;18764;-73
2022/04/04 05:28:35;;;;;;;;;;;;;;;0.51;50.54;98890.33;107402;1274;16509;-75
2022/04/04 05:31:04;;;;;;;;;;;;;;;0.55;50.49;98889.98;107395;1274;16451;-73
2022/04/04 05:33:32;;;;;;;;;;;;;;;0.61;50.41;98887.52;107436;1274;16450;-74
2022/04/04 05:35:58;;;;;;;;;;;;;;;0.67;50.51;98886.60;107663;1274;16617;-74
2022/04/04 05:38:25;;;;;;;;;;;;;;;0.73;50.60;98886.94;107555;1273;16445;-73
2022/04/04 05:40:52;;;;;;;;;;;;;;;0.78;50.64;98886.58;107400;1274;16452;-73
2022/04/04 05:43:18;;;;;;;;;;;;;;;0.83;50.67;98887.61;107585;1274;16506;-75
2022/04/04 05:45:50;;;;;;;;;;;;;;;0.87;50.44;98892.56;107624;1274;16439;-75
2022/04/04 05:48:16;;;;;;;;;;;;;;;0.91;50.57;98891.04;107583;1274;16473;-74
2022/04/04 05:50:43;;;;;;;;;;;;;;;0.96;50.79;98889.29;107308;1274;17281;-74
2022/04/04 05:53:09;;;;;;;;;;;;;;;1.01;50.42;98888.75;107334;1274;17312;-73
2022/04/04 05:55:37;;;;;;;;;;;;;;;1.07;50.70;98882.73;107592;1273;16458;-73
2022/04/04 05:58:04;;;;;;;;;;;;;;;1.14;50.80;98884.08;107388;1274;17345;-74
2022/04/04 06:00:31;;;;;;;;;;;;;;;1.19;50.84;98886.15;107570;1273;16424;-74
2022/04/04 06:02:57;;;;;;;;;;;;;;;1.25;50.55;98882.39;107609;1274;16512;-74
2022/04/04 06:05:24;;;;;;;;;;;;;;;1.31;50.52;98884.11;107417;1274;16456;-74
2022/04/04 06:07:50;;;;;;;;;;;;;;;1.36;50.50;98885.17;107300;1274;16618;-75
2022/04/04 06:10:17;;;;;;;;;;;;;;;1.42;50.44;98888.29;107414;1273;15733;-74
2022/04/04 06:12:44;;;;;;;;;;;;;;;1.45;50.51;98885.52;107212;1274;17572;-74
2022/04/04 06:15:11;;;;;;;;;;;;;;;1.52;50.48;98884.58;107407;1274;16442;-74
2022/04/04 06:17:38;;;;;;;;;;;;;;;1.58;50.57;98883.98;107342;1273;16460;-74
2022/04/04 06:20:08;;;;;;;;;;;;;;;1.63;50.36;98885.71;107275;1275;17939;-75
2022/04/04 06:22:38;;;;;;;;;;;;;;;1.70;50.42;98885.45;107294;1274;17709;-74
2022/04/04 06:25:08;;;;;;;;;;;;;;;1.76;50.51;98886.59;107357;1274;16456;-74
2022/04/04 06:27:36;;;;;;;;;;;;;;;1.82;50.66;98887.40;107385;1274;16538;-74
2022/04/04 06:30:04;;;;;;;;;;;;;;;1.90;50.74;98885.89;107310;1274;17896;-74
2022/04/04 06:32:30;;;;;;;;;;;;;;;1.96;50.62;98880.21;107401;1274;16528;-73
2022/04/04 06:34:57;;;;;;;;;;;;;;;2.01;50.58;98882.96;107336;1274;16464;-73
2022/04/04 06:37:24;;;;;;;;;;;;;;;2.03;50.39;98882.18;107379;1274;16823;-72
2022/04/04 06:39:51;;;;;;;;;;;;;;;2.06;50.57;98879.95;107342;1274;16448;-73
2022/04/04 06:42:19;;;;;;;;;;;;;;;2.08;50.59;98878.29;107244;1274;16486;-73
2022/04/04 06:44:46;;;;;;;;;;;;;;;2.12;50.67;98875.33;107226;1274;16772;-75
2022/04/04 06:47:13;;;;;;;;;;;;;;;2.20;50.78;98875.56;107354;1274;16436;-74
2022/04/04 06:49:40;;;;;;;;;;;;;;;2.27;50.67;98872.60;107233;1274;17503;-74
2022/04/04 06:52:07;;;;;;;;;;;;;;;2.35;50.66;98874.38;107356;1274;16462;-74
2022/04/04 06:54:34;;;;;;;;;;;;;;;2.44;50.85;98874.73;107339;1274;16916;-74
2022/04/04 06:57:02;;;;;;;;;;;;;;;2.53;50.83;98875.23;107380;1274;15498;-74
2022/04/04 06:59:29;;;;;;;;;;;;;;;2.62;50.76;98872.02;107231;1274;16505;-74
2022/04/04 07:01:56;;;;;;;;;;;;;;;2.72;50.89;98874.02;107263;1274;15435;-74
2022/04/04 07:04:23;;;;;;;;;;;;;;;2.81;50.93;98864.48;107276;1274;17936;-74
2022/04/04 07:06:50;;;;;;;;;;;;;;;2.90;50.89;98859.38;107412;1274;16461;-75
2022/04/04 07:09:16;;;;;;;;;;;;;;;2.98;50.90;98861.11;107334;1274;16438;-73
2022/04/04 07:11:43;;;;;;;;;;;;;;;3.07;50.77;98861.41;107450;1274;18828;-74
2022/04/04 07:14:10;;;;;;;;;;;;;;;3.13;50.89;98861.88;107619;1273;16538;-74
2022/04/04 07:16:38;;;;;;;;;;;;;;;3.17;50.59;98856.76;107444;1274;15875;-74
2022/04/04 07:19:05;;;;;;;;;;;;;;;3.19;50.65;98850.84;107740;1274;17780;-74
2022/04/04 07:21:32;;;;;;;;;;;;;;;3.21;50.71;98845.51;107634;1273;18782;-74
2022/04/04 07:23:59;;;;;;;;;;;;;;;3.27;50.68;98838.16;107592;1274;16506;-74
2022/04/04 07:26:28;;;;;;;;;;;;;;;3.37;50.96;98839.31;107641;1273;17287;-74
2022/04/04 07:28:55;;;;;;;;;;;;;;;3.48;50.94;98834.55;107639;1273;16535;-75
2022/04/04 07:31:22;;;;;;;;;;;;;;;3.57;50.99;98836.42;107349;1274;16507;-75
2022/04/04 07:33:48;;;;;;;;;;;;;;;3.65;51.00;98828.83;107573;1274;15839;-76
2022/04/04 07:36:16;;;;;;;;;;;;;;;3.70;50.89;98823.48;107573;1273;18171;-75
2022/04/04 07:38:42;;;;;;;;;;;;;;;3.73;50.87;98824.39;107428;1274;16461;-74
2022/04/04 07:41:09;;;;;;;;;;;;;;;3.76;50.73;98817.02;107408;1273;16525;-76
2022/04/04 07:43:36;;;;;;;;;;;;;;;3.79;50.78;98813.16;107655;1274;17279;-76
2022/04/04 07:46:03;;;;;;;;;;;;;;;3.81;50.68;98810.95;107547;1273;16520;-75
2022/04/04 07:48:32;;;;;;;;;;;;;;;3.87;50.82;98808.23;107474;1274;16493;-75
2022/04/04 07:50:59;;;;;;;;;;;;;;;3.95;50.78;98803.95;107597;1272;16473;-75
2022/04/04 07:53:26;;;;;;;;;;;;;;;4.02;50.60;98798.68;107482;1274;15442;-75
2022/04/04 07:55:53;;;;;;;;;;;;;;;4.06;50.67;98798.80;107441;1274;17877;-74
2022/04/04 07:58:26;;;;;;;;;;;;;;;4.12;50.63;98798.19;107571;1273;16473;-74
2022/04/04 08:01:22;;;;;;;;;;;;;;;4.20;50.70;98792.33;107642;1273;16874;-75
2022/04/04 08:03:59;;;;;;;;;;;;;;;4.30;50.52;98796.02;107678;1273;16485;-74
2022/04/04 08:06:35;;;;;;;;;;;;;;;4.41;50.43;98794.92;107518;1274;15646;-73
2022/04/04 08:09:15;;;;;;;;;;;;;;;4.46;50.55;98786.74;107714;1273;16459;-73
2022/04/04 08:11:42;;;;;;;;;;;;;;;4.52;50.58;98786.97;107638;1273;16662;-74
2022/04/04 08:14:09;;;;;;;;;;;;;;;4.59;50.55;98782.21;107592;1273;17321;-73
2022/04/04 08:16:36;;;;;;;;;;;;;;;4.64;50.62;98778.58;107568;1273;16484;-74
2022/04/04 08:19:04;;;;;;;;;;;;;;;4.67;50.35;98776.13;107269;1274;19383;-75
2022/04/04 08:21:30;;;;;;;;;;;;;;;4.71;50.39;98772.90;107241;1274;16444;-74
2022/04/04 08:23:58;;;;;;;;;;;;;;;4.81;50.45;98771.70;107473;1274;16444;-74
2022/04/04 08:26:25;;;;;;;;;;;;;;;4.93;50.59;98767.73;107366;1274;16465;-75
2022/04/04 08:28:52;;;;;;;;;;;;;;;5.04;50.48;98767.64;107339;1274;17021;-77
2022/04/04 08:31:19;;;;;;;;;;;;;;;5.20;50.71;98760.77;107336;1275;16911;-73
2022/04/04 08:33:47;;;;;;;;;;;;;;;5.31;50.43;98757.14;107659;1273;16515;-74
2022/04/04 08:36:13;;;;;;;;;;;;;;;5.38;50.09;98751.63;107610;1273;16445;-74
2022/04/04 08:38:41;;;;;;;;;;;;;;;5.40;50.23;98750.46;107568;1273;16445;-73
2022/04/04 08:41:10;;;;;;;;;;;;;;;5.39;50.42;98746.25;107626;1273;17811;-74
2022/04/04 08:43:38;;;;;;;;;;;;;;;5.43;50.28;98747.31;107642;1273;16439;-74
2022/04/04 08:46:06;;;;;;;;;;;;;;;5.48;50.00;98741.20;107572;1274;16433;-74
2022/04/04 08:48:41;;;;;;;;;;;;;;;5.57;50.17;98736.98;107748;1274;17839;-74
2022/04/04 08:51:08;;;;;;;;;;;;;;;5.69;50.17;98735.90;107566;1274;16483;-73
2022/04/04 08:53:37;;;;;;;;;;;;;;;5.79;49.82;98732.52;107588;1273;16959;-75
2022/04/04 08:56:05;;;;;;;;;;;;;;;5.80;49.72;98728.05;107624;1274;17486;-76
2022/04/04 08:58:32;;;;;;;;;;;;;;;5.69;49.55;98725.88;107601;1273;18285;-75
2022/04/04 09:00:59;;;;;;;;;;;;;;;5.59;49.54;98718.31;107562;1273;16451;-76
2022/04/04 09:03:33;;;;;;;;;;;;;;;5.52;49.36;98715.91;107586;1274;16437;-75
2022/04/04 09:06:03;;;;;;;;;;;;;;;5.51;49.51;98701.10;107711;1273;16454;-75
2022/04/04 09:08:42;;;;;;;;;;;;;;;5.62;49.60;98696.57;107636;1273;17888;-75
2022/04/04 09:11:15;;;;;;;;;;;;;;;5.74;49.71;98696.06;107484;1274;16446;-75
2022/04/04 09:13:42;;;;;;;;;;;;;;;5.79;49.33;98689.60;107343;1274;16454;-74
2022/04/04 09:16:10;;;;;;;;;;;;;;;5.82;49.41;98694.01;107408;1274;17371;-76
2022/04/04 09:18:42;;;;;;;;;;;;;;;5.86;49.13;98686.90;107317;1275;16526;-77
2022/04/04 09:21:18;;;;;;;;;;;;;;;5.87;48.88;98680.84;107250;1275;16817;-75
2022/04/04 09:23:45;;;;;;;;;;;;;;;5.87;49.30;98673.61;107226;1276;16453;-74
2022/04/04 09:26:29;;;;;;;;;;;;;;;5.98;49.40;98672.58;107404;1274;16466;-75
2022/04/04 09:28:56;;;;;;;;;;;;;;;6.20;49.39;98669.73;107297;1274;17255;-74
2022/04/04 09:31:24;;;;;;;;;;;;;;;6.34;48.92;98659.30;107243;1276;16486;-74
2022/04/04 09:33:51;;;;;;;;;;;;;;;6.42;48.96;98653.48;107354;1274;18559;-74
2022/04/04 09:36:18;;;;;;;;;;;;;;;6.50;49.28;98645.06;107429;1274;16870;-75
2022/04/04 09:39:16;;;;;;;;;;;;;;;6.48;48.96;98643.02;107406;1274;16442;-74
2022/04/04 09:41:43;;;;;;;;;;;;;;;6.49;49.04;98647.20;107244;1274;16652;-76
2022/04/04 09:44:11;;;;;;;;;;;;;;;6.55;49.09;98647.37;107212;1276;16475;-75
2022/04/04 09:46:40;;;;;;;;;;;;;;;6.55;49.03;98647.59;107433;1274;15464;-75
2022/04/04 09:49:15;;;;;;;;;;;;;;;6.47;48.92;98643.98;107208;1275;16454;-75
2022/04/04 09:51:45;;;;;;;;;;;;;;;6.32;48.91;98634.84;107408;1274;16464;-74
2022/04/04 09:54:15;;;;;;;;;;;;;;;6.14;48.61;98638.43;107417;1274;17288;-75
2022/04/04 09:56:41;;;;;;;;;;;;;;;6.06;49.03;98628.31;107498;1274;17290;-75
2022/04/04 09:59:10;;;;;;;;;;;;;;;6.08;49.11;98626.41;107408;1274;16451;-75
2022/04/04 10:01:37;;;;;;;;;;;;;;;6.09;48.98;98614.85;107435;1272;17000;-75
2022/04/04 10:04:09;;;;;;;;;;;;;;;6.15;48.96;98605.98;107396;1274;16432;-74
2022/04/04 10:06:38;;;;;;;;;;;;;;;6.23;49.04;98604.64;107411;1273;16507;-74
2022/04/04 10:09:05;;;;;;;;;;;;;;;6.33;49.11;98605.79;107333;1274;16458;-75
2022/04/04 10:11:34;;;;;;;;;;;;;;;6.37;48.95;98606.96;107462;1273;16709;-74
2022/04/04 10:14:01;;;;;;;;;;;;;;;6.38;48.73;98600.02;107374;1274;16466;-74
2022/04/04 10:16:30;;;;;;;;;;;;;;;6.41;48.81;98595.02;107374;1274;17293;-74
2022/04/04 10:18:59;;;;;;;;;;;;;;;6.43;48.98;98586.08;107369;1274;16445;-74
2022/04/04 10:21:26;;;;;;;;;;;;;;;6.55;48.85;98574.35;107358;1274;16518;-74
2022/04/04 10:23:56;;;;;;;;;;;;;;;6.64;48.83;98573.23;107345;1274;16448;-74
2022/04/04 10:26:28;;;;;;;;;;;;;;;6.73;48.60;98570.35;107345;1274;18120;-74
2022/04/04 10:29:14;;;;;;;;;;;;;;;6.81;48.79;98559.06;107435;1274;16460;-74
2022/04/04 10:31:42;;;;;;;;;;;;;;;6.90;48.26;98556.69;107284;1274;16548;-75
2022/04/04 10:34:13;;;;;;;;;;;;;;;6.97;48.18;98552.54;107353;1274;16452;-75
2022/04/04 10:37:03;;;;;;;;;;;;;;;7.05;47.99;98542.64;107443;1274;16517;-75
2022/04/04 10:39:47;;;;;;;;;;;;;;;7.12;48.06;98537.52;107378;1274;16485;-74
2022/04/04 10:42:27;;;;;;;;;;;;;;;7.18;47.87;98538.95;107386;1274;16557;-74
2022/04/04 10:45:18;;;;;;;;;;;;;;;7.28;48.01;98530.06;107317;1274;16451;-74
2022/04/04 10:47:46;;;;;;;;;;;;;;;7.44;47.98;98531.84;107372;1274;16474;-74
2022/04/04 10:50:32;;;;;;;;;;;;;;;7.48;47.76;98520.80;107376;1274;17872;-75
2022/04/04 10:53:03;;;;;;;;;;;;;;;7.44;47.50;98509.38;107408;1274;16482;-74
2022/04/04 10:55:57;;;;;;;;;;;;;;;7.52;47.36;98499.95;107266;1276;16453;-74
2022/04/04 10:58:25;;;;;;;;;;;;;;;7.57;47.49;98496.59;107199;1274;16476;-76
2022/04/04 11:00:57;;;;;;;;;;;;;;;7.69;47.28;98487.63;107389;1273;16887;-75
2022/04/04 11:03:26;;;;;;;;;;;;;;;7.78;47.13;98484.50;107317;1274;17836;-76
2022/04/04 11:09:51;;;;;;;;;;;;;;;7.64;46.92;98486.91;107306;1274;16478;-76
2022/04/04 11:12:08;;;;;;;;;;;;;;;7.73;46.75;98475.46;107300;1274;16464;-75
2022/04/04 11:14:43;;;;;;;;;;;;;;;7.87;46.65;98476.44;107352;1274;16456;-73
2022/04/04 11:17:13;;;;;;;;;;;;;;;8.05;46.62;98470.38;107346;1274;16451;-74
2022/04/04 11:20:04;;;;;;;;;;;;;;;8.10;46.38;98460.25;107360;1274;16461;-74
2022/04/04 11:22:34;;;;;;;;;;;;;;;8.04;46.26;98459.63;107350;1274;16267;-75
2022/04/04 11:25:03;;;;;;;;;;;;;;;7.99;46.32;98452.38;107363;1274;16471;-75
2022/04/04 11:27:34;;;;;;;;;;;;;;;7.92;46.18;98447.59;107334;1274;17825;-74
2022/04/04 11:30:06;;;;;;;;;;;;;;;7.85;46.06;98437.77;107344;1274;16519;-74
2022/04/04 11:32:34;;;;;;;;;;;;;;;7.80;46.36;98433.90;107331;1274;16483;-74
2022/04/04 11:35:08;;;;;;;;;;;;;;;7.78;46.17;98435.94;107285;1274;16454;-74
2022/04/04 11:37:40;;;;;;;;;;;;;;;7.74;46.08;98442.48;107404;1274;16668;-74
2022/04/04 11:40:14;;;;;;;;;;;;;;;7.68;45.82;98425.70;107329;1274;16473;-74
2022/04/04 11:42:41;;;;;;;;;;;;;;;7.67;45.80;98415.84;107483;1273;16455;-74
2022/04/04 11:45:09;;;;;;;;;;;;;;;7.69;45.77;98415.89;107385;1274;16482;-73
2022/04/04 11:47:39;;;;;;;;;;;;;;;7.76;45.71;98415.56;107374;1274;18501;-73
2022/04/04 11:50:06;;;;;;;;;;;;;;;7.81;45.74;98405.94;107284;1274;19003;-74
2022/04/04 11:52:46;;;;;;;;;;;;;;;7.89;45.59;98400.41;107383;1273;16460;-73
2022/04/04 11:55:13;;;;;;;;;;;;;;;7.97;45.73;98390.85;107357;1274;17288;-74
2022/04/04 11:57:41;;;;;;;;;;;;;;;7.98;45.41;98388.27;107363;1274;16969;-73
2022/04/04 12:00:11;;;;;;;;;;;;;;;7.97;45.39;98377.71;107385;1274;16516;-75
2022/04/04 12:02:38;;;;;;;;;;;;;;;8.10;45.59;98371.98;107289;1274;16465;-74
2022/04/04 12:05:06;;;;;;;;;;;;;;;8.21;45.38;98358.39;107243;1274;16441;-75
2022/04/04 12:07:33;;;;;;;;;;;;;;;8.32;45.28;98360.77;107282;1274;16681;-74
2022/04/04 12:10:01;;;;;;;;;;;;;;;8.41;45.32;98354.10;107297;1274;17287;-73
2022/04/04 12:12:31;;;;;;;;;;;;;;;8.53;45.01;98345.61;107511;1273;16498;-75
2022/04/04 12:14:58;;;;;;;;;;;;;;;8.63;44.88;98342.15;107603;1273;16484;-74
2022/04/04 12:17:25;;;;;;;;;;;;;;;8.70;44.83;98336.13;107636;1273;16452;-74
2022/04/04 12:19:52;;;;;;;;;;;;;;;8.83;44.72;98331.11;107332;1275;16474;-76
2022/04/04 12:32:39;;;;;;;13.70;5.70;;;;;;;16.32;46.90;98275.00;102632;1311;545734;-81
2022/04/04 12:35:08;;;;;;;8.50;3.40;;;;;;;14.87;44.29;98269.24;105468;1284;27013;-79
2022/04/04 12:37:42;;;;;;;7.70;2.60;;;;;;;13.01;44.30;98273.59;104941;1287;22569;-80
2022/04/04 12:40:25;;;;;;;6.80;2.60;;;;;;;11.85;44.38;98268.58;103599;1291;67180;-81
2022/04/04 12:43:05;;;;;;;7.40;2.80;;;;;;;11.05;44.35;98261.35;104393;1294;22569;-81
2022/04/04 12:45:32;;;;;;;5.80;1.90;;;;;;;10.60;44.17;98249.20;104319;1291;159570;-80
2022/04/04 12:48:11;;;;;;;8.80;3.10;;;;;;;10.36;44.16;98241.27;104397;1291;23993;-80
2022/04/04 12:50:41;;;;;;;8.80;4.00;;;;;;;10.06;44.28;98232.56;104358;1290;25290;-81
2022/04/04 12:53:10;;;;;;;9.50;3.70;;;;;;;9.97;44.33;98231.38;104359;1290;25327;-80
2022/04/04 12:55:38;;;;;;;6.90;3.00;;;;;;;9.90;44.06;98218.98;104435;1292;22550;-77
2022/04/04 12:58:23;;;;;;;6.40;1.90;;;;;;;9.92;43.88;98194.57;104610;1290;22553;-78
2022/04/04 13:00:51;;;;;;;5.60;2.10;;;;;;;9.93;43.73;98198.06;104604;1290;22613;-79
2022/04/04 13:03:26;;;;;;;5.90;2.20;;;;;;;9.93;43.51;98199.31;104505;1291;22636;-78
2022/04/04 13:05:55;;;;;;;8.60;2.30;;;;;;;9.74;43.14;98204.59;104524;1290;24346;-78
2022/04/04 13:08:24;;;;;;;7.50;2.90;;;;;;;9.56;43.01;98185.55;104495;1290;22550;-78
2022/04/04 13:11:12;;;;;;;5.50;2.20;;;;;;;9.59;43.10;98179.05;104581;1291;22574;-78